Weather History for Stigler, OK

Change the Weather History Date:

Tuesday, November 1, 2011

  Actual Average (KJSV) Record (KJSV)
Temperature  
Mean Temperature 64 °F -  
Max Temperature 75 °F 70 °F 89 °F (2003)
Min Temperature 53 °F 46 °F 22 °F (1993)
Degree Days  
Heating Degree Days 1    
Growing Degree Days 14 (Base 50)    
Moisture  
Dew Point 42 °F    
Average Humidity 48    
Maximum Humidity 72    
Minimum Humidity 29    
Precipitation  
Precipitation 0.00 in - - ()
Sea Level Pressure  
Sea Level Pressure 30.07 in    
Wind  
Wind Speed 7 mph (SSE)    
Max Wind Speed 18 mph    
Max Gust Speed 25 mph    
Visibility 9 miles    
Events      
Averages and records for this station are not official NWS values.
T = Trace of Precipitation, MM = Missing Value Source: NWS Daily Summary

Daily Weather History Graph

Daily Weather History Graph

Search for Another Location

Airport:

Trip Planner

Search our weather history database for the weather conditions in past years. The results will help you decide how hot, cold, wet, or windy it might be!

Date:

Astronomy

Nov. 01, 2011 Rise Set
Actual Time 7:41 AM CDT 6:25 PM CDT
Civil Twilight 7:15 AM CDT 6:52 PM CDT
Nautical Twilight 6:45 AM CDT 7:22 PM CDT
Astronomical Twilight 6:15 AM CDT 7:51 PM CDT
Moon 1:26 PM CDT (11/1) No Moon Set
Length of Visible Light 11h 36m
Length of Day
10h 44m
Waxing Crescent, 40% of the Moon is Illuminated
Nov 1
Waxing Crescent
Nov 2
First Quarter
Nov 10
Full
Nov 18
Last Quarter
Nov 25
New

Hourly Weather History & Observations

Time (CDT) Temp. Dew Point Humidity Pressure Visibility Wind Dir Wind Speed Gust Speed Precip Events Conditions
12:15 AM 55.4 °F 41.0 °F 58% 30.10 in 10.0 mi Calm Calm - N/A   Clear
12:35 AM 55.4 °F 41.0 °F 58% 30.10 in 10.0 mi SE 3.5 mph - N/A   Clear
12:55 AM 55.4 °F 41.0 °F 58% 30.10 in 10.0 mi SE 5.8 mph - N/A   Clear
1:15 AM 53.6 °F 41.0 °F 62% 30.10 in 10.0 mi SSE 6.9 mph - N/A   Clear
1:35 AM 55.4 °F 41.0 °F 58% 30.09 in 10.0 mi SE 8.1 mph - N/A   Clear
1:55 AM 57.2 °F 39.2 °F 51% 30.10 in 10.0 mi SE 6.9 mph - N/A   Partly Cloudy
2:15 AM 57.2 °F 41.0 °F 55% 30.10 in 10.0 mi SE 6.9 mph - N/A   Clear
2:35 AM 55.4 °F 41.0 °F 58% 30.10 in 10.0 mi SSE 6.9 mph - N/A   Clear
2:55 AM 55.4 °F 42.8 °F 63% 30.10 in 10.0 mi Calm Calm - N/A   Clear
3:15 AM 55.4 °F 41.0 °F 58% 30.10 in 10.0 mi SE 5.8 mph - N/A   Clear
3:35 AM 55.4 °F 42.8 °F 63% 30.10 in 10.0 mi ESE 4.6 mph - N/A   Clear
3:55 AM 55.4 °F 41.0 °F 58% 30.10 in 10.0 mi ESE 5.8 mph - N/A   Clear
4:15 AM 55.4 °F 41.0 °F 58% 30.10 in 10.0 mi ESE 5.8 mph - N/A   Clear
4:35 AM 55.4 °F 41.0 °F 58% 30.10 in 10.0 mi SE 4.6 mph - N/A   Partly Cloudy
4:55 AM 55.4 °F 41.0 °F 58% 30.11 in 10.0 mi SE 5.8 mph - N/A   Partly Cloudy
5:15 AM 55.4 °F 41.0 °F 58% 30.10 in 10.0 mi ESE 6.9 mph - N/A   Partly Cloudy
5:35 AM 55.4 °F 41.0 °F 58% 30.11 in 8.0 mi SE 5.8 mph - N/A   Partly Cloudy
5:55 AM 55.4 °F 41.0 °F 58% 30.11 in 10.0 mi SE 3.5 mph - N/A   Scattered Clouds
6:15 AM 53.6 °F 41.0 °F 62% 30.11 in 7.0 mi ESE 6.9 mph - N/A   Scattered Clouds
6:35 AM 53.6 °F 41.0 °F 62% 30.11 in 9.0 mi ESE 6.9 mph - N/A   Scattered Clouds
6:55 AM 53.6 °F 41.0 °F 62% 30.12 in 9.0 mi ESE 6.9 mph - N/A   Partly Cloudy
7:15 AM 53.6 °F 42.8 °F 67% 30.12 in 9.0 mi ESE 6.9 mph - N/A   Clear
7:35 AM 53.6 °F 42.8 °F 67% 30.12 in 8.0 mi ESE 8.1 mph - N/A   Clear
7:55 AM 53.6 °F 44.6 °F 72% 30.13 in 5.0 mi SE 5.8 mph - N/A   Haze
8:15 AM 55.4 °F 44.6 °F 67% 30.13 in 8.0 mi ESE 5.8 mph - N/A   Clear
8:35 AM 59.0 °F 44.6 °F 59% 30.13 in 8.0 mi SE 5.8 mph - N/A   Clear
8:55 AM 62.6 °F 44.6 °F 52% 30.13 in 9.0 mi South 9.2 mph - N/A   Unknown
9:15 AM 64.4 °F 44.6 °F 49% 30.14 in 9.0 mi South 11.5 mph - N/A   Unknown
9:35 AM 66.2 °F 44.6 °F 46% 30.14 in 9.0 mi South 12.7 mph 19.6 mph N/A   Unknown
9:55 AM 66.2 °F 44.6 °F 46% 30.13 in 10.0 mi South 16.1 mph 21.9 mph N/A   Unknown
10:15 AM 68.0 °F 44.6 °F 43% 30.13 in 9.0 mi South 18.4 mph 23.0 mph N/A   Unknown
10:35 AM 68.0 °F 44.6 °F 43% 30.13 in 8.0 mi SSW 15.0 mph 25.3 mph N/A   Unknown
10:55 AM 69.8 °F 44.6 °F 40% 30.13 in 10.0 mi South 11.5 mph 23.0 mph N/A   Unknown
11:15 AM 71.6 °F 44.6 °F 38% 30.12 in 9.0 mi South 18.4 mph 21.9 mph N/A   Unknown
11:35 AM 71.6 °F 44.6 °F 38% 30.11 in 9.0 mi South 17.3 mph 25.3 mph N/A   Unknown
11:55 AM 73.4 °F 44.6 °F 36% 30.10 in 8.0 mi South 17.3 mph 23.0 mph N/A   Unknown
12:15 PM 73.4 °F 44.6 °F 36% 30.09 in 8.0 mi South 17.3 mph 23.0 mph N/A   Unknown
12:55 PM 73.4 °F 44.6 °F 36% 30.06 in 9.0 mi South 18.4 mph 24.2 mph N/A   Unknown
1:15 PM 75.2 °F 44.6 °F 34% 30.05 in 9.0 mi South 13.8 mph 20.7 mph N/A   Unknown
1:35 PM 73.4 °F 44.6 °F 36% 30.04 in 9.0 mi South 15.0 mph 24.2 mph N/A   Unknown
1:55 PM 75.2 °F 44.6 °F 34% 30.03 in 9.0 mi SSE 17.3 mph 21.9 mph N/A   Unknown
2:15 PM 75.2 °F 42.8 °F 31% 30.03 in 10.0 mi South 16.1 mph 24.2 mph N/A   Unknown
2:35 PM 75.2 °F 41.0 °F 29% 30.03 in 10.0 mi South 17.3 mph 23.0 mph N/A   Unknown
2:55 PM 75.2 °F 42.8 °F 31% 30.02 in 8.0 mi South 16.1 mph 24.2 mph N/A   Unknown
3:35 PM 75.2 °F 42.8 °F 31% 30.03 in 6.0 mi South 13.8 mph 20.7 mph N/A   Haze
3:55 PM 73.4 °F 41.0 °F 31% 30.02 in 10.0 mi South 12.7 mph 24.2 mph N/A   Unknown
4:15 PM 73.4 °F 41.0 °F 31% 30.01 in 8.0 mi SSE 15.0 mph 21.9 mph N/A   Unknown
4:35 PM 73.4 °F 41.0 °F 31% 30.01 in 9.0 mi South 13.8 mph 24.2 mph N/A   Unknown
4:55 PM 73.4 °F 41.0 °F 31% 30.00 in 10.0 mi South 12.7 mph 20.7 mph N/A   Unknown
5:15 PM 71.6 °F 41.0 °F 33% 30.00 in 10.0 mi SSE 9.2 mph - N/A   Unknown
5:35 PM 69.8 °F 41.0 °F 35% 30.00 in 9.0 mi SSE 11.5 mph - N/A   Unknown
5:55 PM 68.0 °F 39.2 °F 35% 30.00 in 9.0 mi South 11.5 mph 18.4 mph N/A   Unknown
6:15 PM 68.0 °F 39.2 °F 35% 30.00 in 10.0 mi SSE 8.1 mph - N/A   Unknown
6:35 PM 66.2 °F 39.2 °F 37% 30.00 in 10.0 mi SSE 8.1 mph - N/A   Unknown
6:55 PM 64.4 °F 41.0 °F 42% 30.00 in 10.0 mi SSE 5.8 mph - N/A   Unknown
7:15 PM 62.6 °F 41.0 °F 45% 30.01 in 10.0 mi SE 4.6 mph - N/A   Unknown
7:35 PM 60.8 °F 41.0 °F 48% 30.01 in 10.0 mi SE 5.8 mph - N/A   Unknown
7:55 PM 60.8 °F 41.0 °F 48% 30.01 in 10.0 mi SE 6.9 mph - N/A   Unknown
8:15 PM 59.0 °F 41.0 °F 51% 30.01 in 10.0 mi ESE 6.9 mph - N/A   Unknown
8:35 PM 59.0 °F 41.0 °F 51% 30.02 in 10.0 mi SE 4.6 mph - N/A   Unknown
8:55 PM 59.0 °F 41.0 °F 51% 30.02 in 10.0 mi SE 5.8 mph - N/A   Unknown
9:15 PM 59.0 °F 41.0 °F 51% 30.02 in 10.0 mi SE 3.5 mph - N/A   Unknown
9:35 PM 57.2 °F 41.0 °F 55% 30.02 in 10.0 mi SE 5.8 mph - N/A   Unknown
9:55 PM 57.2 °F 41.0 °F 55% 30.02 in 10.0 mi SE 6.9 mph - N/A   Unknown
10:15 PM 57.2 °F 41.0 °F 55% 30.02 in 10.0 mi SE 6.9 mph - N/A   Unknown
10:35 PM 57.2 °F 39.2 °F 51% 30.03 in 10.0 mi SE 4.6 mph - N/A   Unknown
10:55 PM 59.0 °F 39.2 °F 48% 30.03 in 10.0 mi SE 5.8 mph - N/A   Unknown
11:15 PM 59.0 °F 41.0 °F 51% 30.02 in 10.0 mi ESE 5.8 mph - N/A   Unknown
11:35 PM 57.2 °F 39.2 °F 51% 30.02 in 10.0 mi SSE 5.8 mph - N/A   Unknown
11:55 PM 62.6 °F 39.2 °F 42% 30.02 in 10.0 mi SSE 8.1 mph - N/A   Unknown